createdAt,value
2023-03-02T00:00:00.799Z,12.18
2023-03-02T00:04:04.563Z,11.32
2023-03-02T00:08:06.017Z,11.36
2023-03-02T00:12:07.830Z,11.94
2023-03-02T00:16:09.173Z,11.37
2023-03-02T00:20:11.647Z,10.85
2023-03-02T00:24:15.443Z,10.91
2023-03-02T00:28:16.864Z,11.40
2023-03-02T00:32:18.785Z,11.91
2023-03-02T00:36:21.543Z,11.55
2023-03-02T00:40:22.899Z,12.19
2023-03-02T00:44:24.386Z,11.72
2023-03-02T00:48:25.737Z,10.97
2023-03-02T00:52:28.905Z,11.21
2023-03-02T00:56:30.829Z,11.57
2023-03-02T01:00:34.173Z,11.75
2023-03-02T01:04:41.233Z,10.85
2023-03-02T01:08:42.700Z,11.35
2023-03-02T01:12:44.070Z,12.41
2023-03-02T01:16:48.418Z,12.27
2023-03-02T01:20:49.796Z,12.13
2023-03-02T01:24:51.854Z,12.26
2023-03-02T01:28:55.389Z,12.26
2023-03-02T01:32:56.754Z,12.21
2023-03-02T01:36:58.360Z,11.85
2023-03-02T01:40:59.785Z,11.97
2023-03-02T01:45:01.667Z,11.88
2023-03-02T01:49:11.422Z,11.82
2023-03-02T01:53:15.627Z,11.72
2023-03-02T01:57:26.239Z,11.71
2023-03-02T02:01:32.556Z,11.75
2023-03-02T02:05:39.004Z,11.75
2023-03-02T02:09:45.682Z,10.98
2023-03-02T02:13:47.828Z,10.58
2023-03-02T02:17:50.535Z,11.15
2023-03-02T02:21:52.053Z,11.39
2023-03-02T02:25:53.561Z,11.23
2023-03-02T02:29:58.175Z,11.30
2023-03-02T02:34:09.574Z,11.34
2023-03-02T02:38:13.733Z,11.65
2023-03-02T02:42:20.074Z,11.07
2023-03-02T02:46:22.613Z,9.81
2023-03-02T02:50:32.721Z,11.10
2023-03-02T02:54:36.290Z,11.10
2023-03-02T02:58:46.059Z,11.59
2023-03-02T03:03:01.794Z,11.58
2023-03-02T03:07:05.777Z,11.58
2023-03-02T03:11:08.510Z,11.51
2023-03-02T03:15:11.255Z,11.46
2023-03-02T03:19:32.859Z,10.91
2023-03-02T03:23:38.028Z,11.38
2023-03-02T03:27:39.460Z,10.37
2023-03-02T03:31:40.907Z,10.25
2023-03-02T03:35:42.320Z,11.23
2023-03-02T03:39:44.225Z,11.49
2023-03-02T03:43:45.773Z,11.44
2023-03-02T03:47:47.101Z,11.36
2023-03-02T03:51:48.711Z,11.26
2023-03-02T03:55:50.509Z,10.88
2023-03-02T03:59:51.894Z,11.10
2023-03-02T04:03:53.294Z,11.15
2023-03-02T04:07:54.666Z,11.14
2023-03-02T04:11:56.131Z,11.12
2023-03-02T04:15:57.616Z,11.13
2023-03-02T04:19:59.466Z,10.95
2023-03-02T04:24:00.902Z,11.18
2023-03-02T04:28:02.565Z,11.05
2023-03-02T04:32:04.203Z,10.05
2023-03-02T04:36:06.389Z,10.39
2023-03-02T04:40:09.972Z,11.01
2023-03-02T04:44:11.764Z,11.01
2023-03-02T04:48:13.101Z,10.97
2023-03-02T04:52:17.406Z,10.95
2023-03-02T04:56:18.802Z,10.53
2023-03-02T05:00:21.001Z,11.01
2023-03-02T05:04:22.995Z,10.88
2023-03-02T05:08:24.306Z,10.71
2023-03-02T05:12:25.716Z,10.78
2023-03-02T05:16:29.557Z,10.68
2023-03-02T05:20:31.580Z,10.38
2023-03-02T05:24:32.941Z,10.54
2023-03-02T05:28:34.612Z,9.16
2023-03-02T05:32:36.048Z,9.67
2023-03-02T05:36:38.794Z,10.27
2023-03-02T05:40:42.263Z,9.85
2023-03-02T05:44:43.627Z,9.97
2023-03-02T05:48:45.390Z,10.74
2023-03-02T05:52:47.052Z,10.88
2023-03-02T05:56:50.219Z,10.30
2023-03-02T06:00:51.849Z,9.86
2023-03-02T06:04:53.213Z,11.01
2023-03-02T06:08:54.571Z,9.52
2023-03-02T06:12:56.289Z,10.37
2023-03-02T06:16:57.711Z,10.25
2023-03-02T06:20:59.987Z,10.48
2023-03-02T06:25:01.555Z,9.97
2023-03-02T06:29:03.125Z,10.36
2023-03-02T06:34:06.218Z,10.94
2023-03-02T06:38:07.621Z,11.08
2023-03-02T06:42:09.144Z,11.24
2023-03-02T06:46:11.110Z,11.29
2023-03-02T06:50:12.523Z,11.17
2023-03-02T06:54:13.978Z,11.04
2023-03-02T06:58:17.882Z,10.52
2023-03-02T07:02:19.275Z,9.70
2023-03-02T07:06:20.766Z,10.24
2023-03-02T07:10:23.548Z,11.12
2023-03-02T07:14:27.873Z,11.60
2023-03-02T07:18:32.518Z,11.83
2023-03-02T07:22:34.096Z,11.07
2023-03-02T07:26:35.432Z,11.68
2023-03-02T07:30:36.781Z,10.68
2023-03-02T07:34:38.284Z,11.18
2023-03-02T07:38:39.846Z,11.06
2023-03-02T07:42:41.270Z,11.49
2023-03-02T07:46:42.756Z,11.87
2023-03-02T07:50:44.203Z,10.97
2023-03-02T07:54:45.514Z,11.49
2023-03-02T07:58:46.969Z,12.67
2023-03-02T08:02:48.477Z,13.95
2023-03-02T08:06:50.094Z,14.50
2023-03-02T08:10:51.488Z,11.43
2023-03-02T08:14:52.855Z,13.81
2023-03-02T08:18:54.290Z,13.71
2023-03-02T08:22:55.691Z,14.76
2023-03-02T08:27:01.104Z,15.10
2023-03-02T08:31:04.143Z,16.34
2023-03-02T08:35:06.333Z,15.18
2023-03-02T08:39:07.946Z,16.58
2023-03-02T08:43:09.248Z,14.95
2023-03-02T08:47:10.842Z,16.91
2023-03-02T08:51:18.624Z,16.37
2023-03-02T08:55:20.208Z,16.23
2023-03-02T08:59:21.778Z,16.08
2023-03-02T09:03:23.339Z,18.98
2023-03-02T09:07:24.688Z,16.50
2023-03-02T09:11:26.569Z,16.26
2023-03-02T09:15:28.178Z,14.66
2023-03-02T09:19:29.503Z,15.92
2023-03-02T09:23:32.191Z,19.68
2023-03-02T09:27:36.337Z,19.72
2023-03-02T09:31:38.426Z,22.44
2023-03-02T09:35:40.097Z,22.87
2023-03-02T09:39:41.498Z,18.88
2023-03-02T09:44:01.302Z,21.64
2023-03-02T09:48:20.745Z,20.33
2023-03-02T09:52:28.731Z,22.74
2023-03-02T09:56:31.004Z,21.84
2023-03-02T10:00:42.844Z,23.35
2023-03-02T10:04:50.362Z,18.96
2023-03-02T10:08:51.850Z,20.85
2023-03-02T10:13:09.010Z,22.60
2023-03-02T10:17:25.319Z,25.67
2023-03-02T10:21:37.412Z,25.74
2023-03-02T10:25:50.359Z,27.90
2023-03-02T10:30:20.124Z,27.77
2023-03-02T10:34:26.710Z,25.81
2023-03-02T10:38:28.807Z,24.15
2023-03-02T10:42:35.632Z,26.86
2023-03-02T10:46:42.380Z,26.08
2023-03-02T10:50:44.313Z,25.33
2023-03-02T10:54:47.299Z,27.50
2023-03-02T10:58:48.669Z,28.24
2023-03-02T11:03:01.300Z,28.86
2023-03-02T11:07:29.228Z,28.76
2023-03-02T11:11:32.140Z,30.06
2023-03-02T11:15:40.326Z,28.99
2023-03-02T11:19:42.850Z,29.02
2023-03-02T11:23:44.318Z,29.72
2023-03-02T11:27:46.256Z,30.58
2023-03-02T11:31:51.377Z,31.12
2023-03-02T11:35:55.411Z,31.28
2023-03-02T11:40:26.325Z,29.82
2023-03-02T11:44:28.955Z,30.31
2023-03-02T11:48:39.432Z,29.01
2023-03-02T11:52:57.462Z,29.02
2023-03-02T11:56:58.823Z,29.80
2023-03-02T12:01:02.073Z,29.37
2023-03-02T12:05:06.786Z,28.81
2023-03-02T12:09:30.776Z,27.56
2023-03-02T12:13:40.192Z,27.00
2023-03-02T12:17:41.667Z,25.81
2023-03-02T12:22:05.654Z,24.29
2023-03-02T12:26:24.328Z,22.99
2023-03-02T12:30:27.981Z,22.73
2023-03-02T12:34:41.745Z,23.03
2023-03-02T12:38:50.205Z,23.00
2023-03-02T12:43:28.499Z,22.27
2023-03-02T12:47:31.976Z,21.33
2023-03-02T12:51:44.671Z,21.09
2023-03-02T12:55:46.892Z,21.65
2023-03-02T12:59:53.745Z,21.45
2023-03-02T13:03:56.010Z,20.50
2023-03-02T13:08:26.111Z,21.21
2023-03-02T13:12:29.171Z,20.20
2023-03-02T13:20:34.236Z,21.29
2023-03-02T13:24:46.770Z,21.05
2023-03-02T13:28:48.118Z,21.41
2023-03-02T13:32:51.291Z,20.99
2023-03-02T13:36:53.343Z,21.37
2023-03-02T13:40:55.665Z,21.29
2023-03-02T13:44:57.142Z,21.43
2023-03-02T13:49:10.287Z,20.92
2023-03-02T13:53:12.667Z,21.29
2023-03-02T13:57:30.659Z,21.35
2023-03-02T14:01:32.294Z,20.85
2023-03-02T14:05:33.864Z,20.64
2023-03-02T14:09:35.271Z,20.49
2023-03-02T14:13:51.675Z,20.01
2023-03-02T14:17:53.084Z,19.05
2023-03-02T14:21:54.421Z,20.14
2023-03-02T14:25:57.012Z,20.80
2023-03-02T14:29:59.016Z,20.70
2023-03-02T14:34:00.599Z,21.09
2023-03-02T14:38:02.040Z,21.19
2023-03-02T14:42:11.189Z,20.98
2023-03-02T14:46:12.616Z,21.28
2023-03-02T14:50:14.455Z,19.84
2023-03-02T14:54:19.410Z,19.47
2023-03-02T14:58:29.477Z,20.92
2023-03-02T15:02:30.953Z,19.91
2023-03-02T15:06:36.422Z,19.14
2023-03-02T15:10:39.880Z,20.58
2023-03-02T15:14:41.289Z,20.36
2023-03-02T15:18:42.804Z,19.25
2023-03-02T15:22:44.279Z,19.81
2023-03-02T15:26:45.811Z,20.00
2023-03-02T15:30:47.403Z,19.41
2023-03-02T15:34:48.737Z,20.18
2023-03-02T15:38:52.933Z,20.70
2023-03-02T15:42:55.219Z,19.91
2023-03-02T15:47:00.513Z,20.23
2023-03-02T15:51:03.801Z,19.73
2023-03-02T15:55:05.416Z,20.87
2023-03-02T15:59:06.941Z,19.31
2023-03-02T16:03:08.547Z,19.79
2023-03-02T16:07:09.940Z,17.54
2023-03-02T16:11:12.519Z,18.62
2023-03-02T16:15:13.952Z,19.16
2023-03-02T16:19:18.988Z,17.75
2023-03-02T16:23:20.618Z,18.99
2023-03-02T16:27:21.974Z,20.04
2023-03-02T16:31:26.640Z,20.32
2023-03-02T16:35:29.748Z,20.12
2023-03-02T16:39:32.427Z,19.26
2023-03-02T16:43:33.760Z,19.43
2023-03-02T16:47:35.637Z,17.84
2023-03-02T16:51:37.519Z,19.54
2023-03-02T16:55:39.185Z,17.59
2023-03-02T16:59:40.910Z,17.14
2023-03-02T17:03:43.209Z,18.25
2023-03-02T17:07:45.343Z,18.97
2023-03-02T17:11:46.718Z,18.75
2023-03-02T17:15:48.216Z,17.44
2023-03-02T17:19:49.662Z,18.08
2023-03-02T17:23:51.011Z,17.45
2023-03-02T17:27:52.445Z,17.81
2023-03-02T17:31:54.229Z,17.61
2023-03-02T17:35:55.622Z,17.87
2023-03-02T17:39:56.959Z,16.96
2023-03-02T17:43:58.247Z,17.09
2023-03-02T17:47:59.659Z,17.64
2023-03-02T17:52:01.140Z,16.83
2023-03-02T17:56:02.607Z,16.07
2023-03-02T18:00:06.934Z,17.46
2023-03-02T18:04:08.450Z,16.99
2023-03-02T18:08:09.790Z,17.10
2023-03-02T18:12:11.057Z,17.40
2023-03-02T18:16:12.847Z,16.84
2023-03-02T18:20:14.523Z,16.71
2023-03-02T18:24:16.000Z,16.84
2023-03-02T18:28:17.470Z,16.32
2023-03-02T18:32:18.961Z,16.45
2023-03-02T18:36:20.509Z,17.30
2023-03-02T18:40:22.177Z,15.93
2023-03-02T18:44:27.952Z,17.35
2023-03-02T18:48:29.975Z,17.39
2023-03-02T18:52:31.439Z,17.51
2023-03-02T18:56:32.812Z,17.22
2023-03-02T19:00:35.068Z,17.14
2023-03-02T19:04:36.546Z,15.10
2023-03-02T19:08:37.990Z,17.40
2023-03-02T19:12:40.419Z,17.49
2023-03-02T19:16:41.837Z,17.36
2023-03-02T19:20:46.077Z,17.32
2023-03-02T19:24:47.724Z,17.41
2023-03-02T19:28:49.435Z,16.24
2023-03-02T19:32:53.794Z,16.90
2023-03-02T19:36:55.399Z,16.95
2023-03-02T19:40:58.491Z,15.80
2023-03-02T19:45:00.592Z,15.85
2023-03-02T19:49:02.020Z,16.70
2023-03-02T19:53:03.531Z,15.85
2023-03-02T19:57:04.972Z,15.91
2023-03-02T20:01:06.437Z,15.67
2023-03-02T20:05:10.358Z,16.96
2023-03-02T20:09:14.463Z,17.09
2023-03-02T20:13:17.677Z,16.87
2023-03-02T20:17:20.304Z,16.52
2023-03-02T20:21:26.039Z,16.87
2023-03-02T20:25:28.337Z,16.17
2023-03-02T20:29:30.008Z,16.53
2023-03-02T20:33:35.532Z,16.39
2023-03-02T20:37:37.068Z,16.49
2023-03-02T20:41:39.008Z,16.06
2023-03-02T20:45:41.507Z,16.16
2023-03-02T20:49:43.319Z,16.18
2023-03-02T20:53:46.938Z,16.19
2023-03-02T20:57:48.657Z,15.91
2023-03-02T21:01:50.355Z,15.96
2023-03-02T21:05:51.701Z,15.98
2023-03-02T21:09:53.137Z,15.81
2023-03-02T21:13:55.736Z,15.56
2023-03-02T21:17:59.144Z,15.31
2023-03-02T21:22:00.788Z,15.06
2023-03-02T21:26:02.238Z,15.62
2023-03-02T21:30:09.404Z,15.19
2023-03-02T21:34:14.533Z,15.34
2023-03-02T21:38:15.968Z,15.54
2023-03-02T21:42:17.320Z,15.49
2023-03-02T21:46:22.550Z,15.33
2023-03-02T21:50:27.098Z,15.50
2023-03-02T21:54:28.429Z,15.41
2023-03-02T21:58:30.017Z,15.35
2023-03-02T22:02:32.028Z,15.17
2023-03-02T22:06:34.799Z,15.25
2023-03-02T22:10:41.296Z,15.13
2023-03-02T22:14:42.662Z,14.98
2023-03-02T22:18:46.068Z,14.76
2023-03-02T22:22:51.997Z,14.82
2023-03-02T22:27:00.325Z,14.56
2023-03-02T22:31:02.155Z,14.84
2023-03-02T22:35:21.168Z,14.78
2023-03-02T22:39:30.647Z,14.73
2023-03-02T22:43:34.158Z,14.59
2023-03-02T22:47:35.485Z,14.54
2023-03-02T22:51:36.825Z,14.45
2023-03-02T22:55:45.091Z,14.24
2023-03-02T22:59:46.479Z,14.04
2023-03-02T23:03:53.545Z,14.01
2023-03-02T23:08:16.460Z,14.04
2023-03-02T23:12:22.876Z,14.01
2023-03-02T23:16:28.853Z,13.77
2023-03-02T23:20:33.362Z,14.00
2023-03-02T23:24:34.757Z,13.99
2023-03-02T23:28:36.076Z,13.80
2023-03-02T23:32:37.668Z,13.78
2023-03-02T23:36:39.657Z,13.64
2023-03-02T23:40:41.629Z,13.53
2023-03-02T23:44:42.914Z,13.42
2023-03-02T23:48:44.380Z,13.42
2023-03-02T23:52:45.859Z,13.42
2023-03-02T23:56:47.206Z,13.27
